sensor_id;sensor_type;location;lat;lon;timestamp;P1;durP1;ratioP1;P2;durP2;ratioP2
46110;SDS011;31849;55.992;37.252;2022-07-01T00:02:09;6.05;;;3.10;;
46110;SDS011;31849;55.992;37.252;2022-07-01T00:07:19;6.80;;;2.92;;
46110;SDS011;31849;55.992;37.252;2022-07-01T00:12:24;5.15;;;3.00;;
46110;SDS011;31849;55.992;37.252;2022-07-01T00:17:28;6.35;;;3.35;;
46110;SDS011;31849;55.992;37.252;2022-07-01T00:22:32;8.52;;;3.25;;
46110;SDS011;31849;55.992;37.252;2022-07-01T00:27:37;6.90;;;3.10;;
46110;SDS011;31849;55.992;37.252;2022-07-01T00:32:42;7.68;;;3.38;;
46110;SDS011;31849;55.992;37.252;2022-07-01T00:37:45;4.40;;;3.17;;
46110;SDS011;31849;55.992;37.252;2022-07-01T00:42:51;5.05;;;3.00;;
46110;SDS011;31849;55.992;37.252;2022-07-01T00:47:55;5.57;;;2.97;;
46110;SDS011;31849;55.992;37.252;2022-07-01T00:52:59;6.15;;;3.15;;
46110;SDS011;31849;55.992;37.252;2022-07-01T00:58:04;7.95;;;3.28;;
46110;SDS011;31849;55.992;37.252;2022-07-01T01:03:08;4.22;;;3.00;;
46110;SDS011;31849;55.992;37.252;2022-07-01T01:08:13;5.95;;;3.30;;
46110;SDS011;31849;55.992;37.252;2022-07-01T01:13:18;4.13;;;2.95;;
46110;SDS011;31849;55.992;37.252;2022-07-01T01:18:22;5.78;;;3.88;;
46110;SDS011;31849;55.992;37.252;2022-07-01T01:23:28;5.75;;;3.20;;
46110;SDS011;31849;55.992;37.252;2022-07-01T01:28:31;7.95;;;3.80;;
46110;SDS011;31849;55.992;37.252;2022-07-01T01:33:35;6.55;;;3.65;;
46110;SDS011;31849;55.992;37.252;2022-07-01T01:38:40;5.47;;;3.20;;
46110;SDS011;31849;55.992;37.252;2022-07-01T01:43:45;6.57;;;3.63;;
46110;SDS011;31849;55.992;37.252;2022-07-01T01:48:48;6.63;;;3.40;;
46110;SDS011;31849;55.992;37.252;2022-07-01T01:53:55;4.00;;;3.20;;
46110;SDS011;31849;55.992;37.252;2022-07-01T01:58:58;7.07;;;3.50;;
46110;SDS011;31849;55.992;37.252;2022-07-01T02:04:04;4.78;;;3.60;;
46110;SDS011;31849;55.992;37.252;2022-07-01T02:09:09;4.40;;;3.50;;
46110;SDS011;31849;55.992;37.252;2022-07-01T02:14:14;7.07;;;4.05;;
46110;SDS011;31849;55.992;37.252;2022-07-01T02:19:17;6.18;;;3.50;;
46110;SDS011;31849;55.992;37.252;2022-07-01T02:24:23;6.28;;;3.38;;
46110;SDS011;31849;55.992;37.252;2022-07-01T02:29:28;5.45;;;3.67;;
46110;SDS011;31849;55.992;37.252;2022-07-01T02:34:33;8.38;;;3.53;;
46110;SDS011;31849;55.992;37.252;2022-07-01T02:39:38;6.47;;;3.77;;
46110;SDS011;31849;55.992;37.252;2022-07-01T02:44:44;6.78;;;3.58;;
46110;SDS011;31849;55.992;37.252;2022-07-01T02:49:47;6.82;;;3.65;;
46110;SDS011;31849;55.992;37.252;2022-07-01T02:54:53;6.20;;;3.35;;
46110;SDS011;31849;55.992;37.252;2022-07-01T02:59:56;7.82;;;3.50;;
46110;SDS011;31849;55.992;37.252;2022-07-01T03:05:02;10.52;;;3.58;;
46110;SDS011;31849;55.992;37.252;2022-07-01T03:10:09;13.30;;;3.42;;
46110;SDS011;31849;55.992;37.252;2022-07-01T03:15:14;5.85;;;3.33;;
46110;SDS011;31849;55.992;37.252;2022-07-01T03:20:18;6.05;;;3.17;;
46110;SDS011;31849;55.992;37.252;2022-07-01T03:25:24;6.65;;;2.67;;
46110;SDS011;31849;55.992;37.252;2022-07-01T03:30:28;5.30;;;3.10;;
46110;SDS011;31849;55.992;37.252;2022-07-01T03:35:32;5.97;;;2.90;;
46110;SDS011;31849;55.992;37.252;2022-07-01T03:40:41;5.72;;;2.85;;
46110;SDS011;31849;55.992;37.252;2022-07-01T03:45:46;7.68;;;2.60;;
46110;SDS011;31849;55.992;37.252;2022-07-01T03:50:50;5.45;;;2.55;;
46110;SDS011;31849;55.992;37.252;2022-07-01T03:55:56;4.63;;;2.63;;
46110;SDS011;31849;55.992;37.252;2022-07-01T04:01:01;5.35;;;2.42;;
46110;SDS011;31849;55.992;37.252;2022-07-01T04:06:05;6.88;;;2.70;;
46110;SDS011;31849;55.992;37.252;2022-07-01T04:11:12;8.60;;;2.72;;
46110;SDS011;31849;55.992;37.252;2022-07-01T04:16:17;6.55;;;2.42;;
46110;SDS011;31849;55.992;37.252;2022-07-01T04:21:21;7.18;;;2.30;;
46110;SDS011;31849;55.992;37.252;2022-07-01T04:26:45;5.60;;;2.30;;
46110;SDS011;31849;55.992;37.252;2022-07-01T04:31:49;7.28;;;2.17;;
46110;SDS011;31849;55.992;37.252;2022-07-01T04:36:53;5.85;;;2.10;;
46110;SDS011;31849;55.992;37.252;2022-07-01T04:41:59;4.18;;;2.10;;
46110;SDS011;31849;55.992;37.252;2022-07-01T04:47:04;6.43;;;1.95;;
46110;SDS011;31849;55.992;37.252;2022-07-01T04:52:07;3.97;;;1.67;;
46110;SDS011;31849;55.992;37.252;2022-07-01T04:57:12;7.57;;;1.70;;
46110;SDS011;31849;55.992;37.252;2022-07-01T05:02:16;4.68;;;1.90;;
46110;SDS011;31849;55.992;37.252;2022-07-01T05:07:19;11.13;;;1.90;;
46110;SDS011;31849;55.992;37.252;2022-07-01T05:17:37;5.13;;;1.75;;
46110;SDS011;31849;55.992;37.252;2022-07-01T05:22:57;5.80;;;1.95;;
46110;SDS011;31849;55.992;37.252;2022-07-01T05:28:02;5.55;;;1.73;;
46110;SDS011;31849;55.992;37.252;2022-07-01T05:33:06;5.53;;;1.80;;
46110;SDS011;31849;55.992;37.252;2022-07-01T05:38:09;5.07;;;2.00;;
46110;SDS011;31849;55.992;37.252;2022-07-01T05:43:14;4.00;;;1.83;;
46110;SDS011;31849;55.992;37.252;2022-07-01T05:48:18;3.13;;;1.52;;
46110;SDS011;31849;55.992;37.252;2022-07-01T05:53:21;3.40;;;1.63;;
46110;SDS011;31849;55.992;37.252;2022-07-01T05:58:26;4.80;;;1.70;;
46110;SDS011;31849;55.992;37.252;2022-07-01T06:03:30;4.35;;;1.60;;
46110;SDS011;31849;55.992;37.252;2022-07-01T06:08:33;3.63;;;1.73;;
46110;SDS011;31849;55.992;37.252;2022-07-01T06:13:38;3.88;;;1.75;;
46110;SDS011;31849;55.992;37.252;2022-07-01T06:18:42;4.32;;;1.60;;
46110;SDS011;31849;55.992;37.252;2022-07-01T06:23:45;4.97;;;1.90;;
46110;SDS011;31849;55.992;37.252;2022-07-01T06:28:50;3.25;;;1.52;;
46110;SDS011;31849;55.992;37.252;2022-07-01T06:33:54;5.07;;;1.70;;
46110;SDS011;31849;55.992;37.252;2022-07-01T06:38:58;2.10;;;1.48;;
46110;SDS011;31849;55.992;37.252;2022-07-01T06:44:04;2.47;;;1.50;;
46110;SDS011;31849;55.992;37.252;2022-07-01T06:49:07;2.88;;;1.60;;
46110;SDS011;31849;55.992;37.252;2022-07-01T06:54:11;4.05;;;1.67;;
46110;SDS011;31849;55.992;37.252;2022-07-01T06:59:15;3.40;;;1.63;;
46110;SDS011;31849;55.992;37.252;2022-07-01T07:04:19;4.65;;;1.60;;
46110;SDS011;31849;55.992;37.252;2022-07-01T07:09:42;4.35;;;1.73;;
46110;SDS011;31849;55.992;37.252;2022-07-01T07:14:47;4.05;;;1.63;;
46110;SDS011;31849;55.992;37.252;2022-07-01T07:19:51;7.22;;;2.05;;
46110;SDS011;31849;55.992;37.252;2022-07-01T07:24:55;2.17;;;1.40;;
46110;SDS011;31849;55.992;37.252;2022-07-01T07:30:00;4.22;;;1.75;;
46110;SDS011;31849;55.992;37.252;2022-07-01T07:35:05;3.70;;;1.85;;
46110;SDS011;31849;55.992;37.252;2022-07-01T07:40:09;2.83;;;1.40;;
46110;SDS011;31849;55.992;37.252;2022-07-01T07:45:18;4.03;;;1.65;;
46110;SDS011;31849;55.992;37.252;2022-07-01T07:50:23;5.15;;;1.67;;
46110;SDS011;31849;55.992;37.252;2022-07-01T07:55:27;3.22;;;1.50;;
46110;SDS011;31849;55.992;37.252;2022-07-01T08:00:33;4.60;;;1.70;;
46110;SDS011;31849;55.992;37.252;2022-07-01T08:05:41;3.78;;;1.42;;
46110;SDS011;31849;55.992;37.252;2022-07-01T08:10:45;4.45;;;1.58;;
46110;SDS011;31849;55.992;37.252;2022-07-01T08:15:51;3.53;;;1.35;;
46110;SDS011;31849;55.992;37.252;2022-07-01T08:20:54;6.13;;;1.55;;
46110;SDS011;31849;55.992;37.252;2022-07-01T08:25:59;6.65;;;1.38;;
46110;SDS011;31849;55.992;37.252;2022-07-01T08:31:04;3.92;;;1.20;;
46110;SDS011;31849;55.992;37.252;2022-07-01T08:36:09;6.07;;;1.40;;
46110;SDS011;31849;55.992;37.252;2022-07-01T08:41:13;3.05;;;1.23;;
46110;SDS011;31849;55.992;37.252;2022-07-01T08:46:19;2.22;;;1.13;;
46110;SDS011;31849;55.992;37.252;2022-07-01T08:51:25;5.35;;;1.65;;
46110;SDS011;31849;55.992;37.252;2022-07-01T08:56:29;4.10;;;1.35;;
46110;SDS011;31849;55.992;37.252;2022-07-01T09:01:53;1.88;;;1.10;;
46110;SDS011;31849;55.992;37.252;2022-07-01T09:07:01;4.10;;;1.35;;
46110;SDS011;31849;55.992;37.252;2022-07-01T09:12:07;5.05;;;1.30;;
46110;SDS011;31849;55.992;37.252;2022-07-01T09:17:18;2.60;;;1.10;;
46110;SDS011;31849;55.992;37.252;2022-07-01T09:22:23;3.00;;;1.30;;
46110;SDS011;31849;55.992;37.252;2022-07-01T09:32:32;4.00;;;1.20;;
46110;SDS011;31849;55.992;37.252;2022-07-01T09:37:35;5.03;;;1.40;;
46110;SDS011;31849;55.992;37.252;2022-07-01T09:42:43;2.58;;;1.35;;
46110;SDS011;31849;55.992;37.252;2022-07-01T09:47:49;4.78;;;2.47;;
46110;SDS011;31849;55.992;37.252;2022-07-01T09:52:54;4.35;;;1.20;;
46110;SDS011;31849;55.992;37.252;2022-07-01T09:57:58;2.67;;;1.20;;
46110;SDS011;31849;55.992;37.252;2022-07-01T10:03:04;2.20;;;1.30;;
46110;SDS011;31849;55.992;37.252;2022-07-01T10:08:14;3.58;;;1.30;;
46110;SDS011;31849;55.992;37.252;2022-07-01T10:13:27;2.50;;;1.35;;
46110;SDS011;31849;55.992;37.252;2022-07-01T10:18:35;5.43;;;1.67;;
46110;SDS011;31849;55.992;37.252;2022-07-01T10:23:40;3.95;;;1.30;;
46110;SDS011;31849;55.992;37.252;2022-07-01T10:28:47;3.03;;;1.23;;
46110;SDS011;31849;55.992;37.252;2022-07-01T10:33:55;3.42;;;1.25;;
46110;SDS011;31849;55.992;37.252;2022-07-01T10:39:15;4.70;;;1.25;;
46110;SDS011;31849;55.992;37.252;2022-07-01T10:44:30;5.55;;;1.45;;
46110;SDS011;31849;55.992;37.252;2022-07-01T10:55:12;2.53;;;1.20;;
46110;SDS011;31849;55.992;37.252;2022-07-01T11:00:26;5.50;;;1.20;;
46110;SDS011;31849;55.992;37.252;2022-07-01T11:05:43;4.18;;;1.30;;
46110;SDS011;31849;55.992;37.252;2022-07-01T11:10:50;6.63;;;1.60;;
46110;SDS011;31849;55.992;37.252;2022-07-01T11:15:58;5.50;;;1.63;;
46110;SDS011;31849;55.992;37.252;2022-07-01T11:21:06;3.00;;;1.40;;
46110;SDS011;31849;55.992;37.252;2022-07-01T11:26:21;7.40;;;1.50;;
46110;SDS011;31849;55.992;37.252;2022-07-01T11:31:27;6.82;;;1.45;;
46110;SDS011;31849;55.992;37.252;2022-07-01T11:36:33;5.05;;;2.05;;
46110;SDS011;31849;55.992;37.252;2022-07-01T11:41:56;2.83;;;1.50;;
46110;SDS011;31849;55.992;37.252;2022-07-01T11:47:03;4.45;;;1.60;;
46110;SDS011;31849;55.992;37.252;2022-07-01T11:52:10;5.93;;;1.77;;
46110;SDS011;31849;55.992;37.252;2022-07-01T11:57:16;5.18;;;1.80;;
46110;SDS011;31849;55.992;37.252;2022-07-01T12:02:21;3.60;;;1.70;;
46110;SDS011;31849;55.992;37.252;2022-07-01T12:07:27;3.92;;;1.80;;
46110;SDS011;31849;55.992;37.252;2022-07-01T12:12:33;5.20;;;1.70;;
46110;SDS011;31849;55.992;37.252;2022-07-01T12:17:37;6.53;;;1.95;;
46110;SDS011;31849;55.992;37.252;2022-07-01T12:22:44;5.05;;;1.60;;
46110;SDS011;31849;55.992;37.252;2022-07-01T12:27:49;3.28;;;1.50;;
46110;SDS011;31849;55.992;37.252;2022-07-01T12:32:53;6.60;;;1.60;;
46110;SDS011;31849;55.992;37.252;2022-07-01T12:37:58;4.43;;;1.42;;
46110;SDS011;31849;55.992;37.252;2022-07-01T12:43:04;4.90;;;1.60;;
46110;SDS011;31849;55.992;37.252;2022-07-01T12:48:10;3.92;;;1.50;;
46110;SDS011;31849;55.992;37.252;2022-07-01T12:53:18;3.55;;;1.65;;
46110;SDS011;31849;55.992;37.252;2022-07-01T12:58:23;4.80;;;1.73;;
46110;SDS011;31849;55.992;37.252;2022-07-01T13:03:29;5.00;;;2.17;;
46110;SDS011;31849;55.992;37.252;2022-07-01T13:08:40;5.60;;;1.40;;
46110;SDS011;31849;55.992;37.252;2022-07-01T13:13:43;3.85;;;1.50;;
46110;SDS011;31849;55.992;37.252;2022-07-01T13:18:47;2.83;;;1.40;;
46110;SDS011;31849;55.992;37.252;2022-07-01T13:23:52;4.47;;;1.73;;
46110;SDS011;31849;55.992;37.252;2022-07-01T13:29:16;8.35;;;1.70;;
46110;SDS011;31849;55.992;37.252;2022-07-01T13:34:25;3.30;;;1.55;;
46110;SDS011;31849;55.992;37.252;2022-07-01T13:39:30;5.32;;;1.85;;
46110;SDS011;31849;55.992;37.252;2022-07-01T13:44:34;2.42;;;1.50;;
46110;SDS011;31849;55.992;37.252;2022-07-01T13:49:38;2.53;;;1.75;;
46110;SDS011;31849;55.992;37.252;2022-07-01T13:54:46;3.85;;;1.80;;
46110;SDS011;31849;55.992;37.252;2022-07-01T13:59:50;4.72;;;1.95;;
46110;SDS011;31849;55.992;37.252;2022-07-01T14:04:54;2.42;;;1.60;;
46110;SDS011;31849;55.992;37.252;2022-07-01T14:09:59;2.75;;;1.52;;
46110;SDS011;31849;55.992;37.252;2022-07-01T14:15:05;2.95;;;1.60;;
46110;SDS011;31849;55.992;37.252;2022-07-01T14:20:10;3.03;;;1.52;;
46110;SDS011;31849;55.992;37.252;2022-07-01T14:25:16;5.38;;;1.83;;
46110;SDS011;31849;55.992;37.252;2022-07-01T14:30:20;4.72;;;2.05;;
46110;SDS011;31849;55.992;37.252;2022-07-01T14:35:25;3.80;;;2.05;;
46110;SDS011;31849;55.992;37.252;2022-07-01T14:40:31;6.53;;;2.20;;
46110;SDS011;31849;55.992;37.252;2022-07-01T14:45:36;3.88;;;1.90;;
46110;SDS011;31849;55.992;37.252;2022-07-01T14:50:41;5.63;;;2.05;;
46110;SDS011;31849;55.992;37.252;2022-07-01T14:55:47;3.30;;;1.70;;
46110;SDS011;31849;55.992;37.252;2022-07-01T15:00:51;3.83;;;1.65;;
46110;SDS011;31849;55.992;37.252;2022-07-01T15:05:55;3.40;;;1.65;;
46110;SDS011;31849;55.992;37.252;2022-07-01T15:11:02;5.97;;;2.00;;
46110;SDS011;31849;55.992;37.252;2022-07-01T15:16:07;3.97;;;2.00;;
46110;SDS011;31849;55.992;37.252;2022-07-01T15:21:16;9.15;;;2.13;;
46110;SDS011;31849;55.992;37.252;2022-07-01T15:26:22;3.72;;;1.92;;
46110;SDS011;31849;55.992;37.252;2022-07-01T15:31:27;4.05;;;2.35;;
46110;SDS011;31849;55.992;37.252;2022-07-01T15:36:50;5.60;;;2.10;;
46110;SDS011;31849;55.992;37.252;2022-07-01T15:41:55;4.45;;;2.22;;
46110;SDS011;31849;55.992;37.252;2022-07-01T15:47:03;5.00;;;1.75;;
46110;SDS011;31849;55.992;37.252;2022-07-01T15:52:21;3.65;;;2.03;;
46110;SDS011;31849;55.992;37.252;2022-07-01T15:57:26;4.85;;;1.80;;
46110;SDS011;31849;55.992;37.252;2022-07-01T16:02:31;3.67;;;2.10;;
46110;SDS011;31849;55.992;37.252;2022-07-01T16:07:35;4.18;;;2.03;;
46110;SDS011;31849;55.992;37.252;2022-07-01T16:12:41;3.85;;;1.77;;
46110;SDS011;31849;55.992;37.252;2022-07-01T16:17:47;2.70;;;1.80;;
46110;SDS011;31849;55.992;37.252;2022-07-01T16:22:53;7.32;;;2.50;;
46110;SDS011;31849;55.992;37.252;2022-07-01T16:27:59;6.00;;;2.35;;
46110;SDS011;31849;55.992;37.252;2022-07-01T16:33:06;4.75;;;1.80;;
46110;SDS011;31849;55.992;37.252;2022-07-01T16:38:11;3.20;;;2.08;;
46110;SDS011;31849;55.992;37.252;2022-07-01T16:43:19;4.32;;;2.38;;
46110;SDS011;31849;55.992;37.252;2022-07-01T16:48:27;4.38;;;2.10;;
46110;SDS011;31849;55.992;37.252;2022-07-01T16:53:36;6.53;;;2.40;;
46110;SDS011;31849;55.992;37.252;2022-07-01T16:58:48;5.30;;;2.38;;
46110;SDS011;31849;55.992;37.252;2022-07-01T17:04:00;8.05;;;2.40;;
46110;SDS011;31849;55.992;37.252;2022-07-01T17:14:10;6.90;;;2.50;;
46110;SDS011;31849;55.992;37.252;2022-07-01T17:19:15;3.60;;;2.50;;
46110;SDS011;31849;55.992;37.252;2022-07-01T17:29:26;3.90;;;2.60;;
46110;SDS011;31849;55.992;37.252;2022-07-01T17:34:37;4.05;;;2.50;;
46110;SDS011;31849;55.992;37.252;2022-07-01T17:39:41;4.68;;;2.60;;
46110;SDS011;31849;55.992;37.252;2022-07-01T17:44:48;7.80;;;2.85;;
46110;SDS011;31849;55.992;37.252;2022-07-01T17:49:53;5.30;;;2.63;;
46110;SDS011;31849;55.992;37.252;2022-07-01T17:54:59;4.68;;;2.42;;
46110;SDS011;31849;55.992;37.252;2022-07-01T18:00:06;5.05;;;2.30;;
46110;SDS011;31849;55.992;37.252;2022-07-01T18:05:10;5.80;;;2.75;;
46110;SDS011;31849;55.992;37.252;2022-07-01T18:15:20;5.67;;;2.70;;
46110;SDS011;31849;55.992;37.252;2022-07-01T18:20:26;6.03;;;2.70;;
46110;SDS011;31849;55.992;37.252;2022-07-01T18:25:38;6.72;;;3.05;;
46110;SDS011;31849;55.992;37.252;2022-07-01T18:30:47;7.70;;;2.92;;
46110;SDS011;31849;55.992;37.252;2022-07-01T18:35:53;7.25;;;3.22;;
46110;SDS011;31849;55.992;37.252;2022-07-01T18:41:05;8.35;;;3.60;;
46110;SDS011;31849;55.992;37.252;2022-07-01T18:46:11;7.43;;;3.25;;
46110;SDS011;31849;55.992;37.252;2022-07-01T18:51:15;6.18;;;3.08;;
46110;SDS011;31849;55.992;37.252;2022-07-01T19:01:26;13.18;;;3.50;;
46110;SDS011;31849;55.992;37.252;2022-07-01T19:06:30;10.35;;;3.63;;
46110;SDS011;31849;55.992;37.252;2022-07-01T19:11:34;9.97;;;3.40;;
46110;SDS011;31849;55.992;37.252;2022-07-01T19:16:40;11.77;;;3.63;;
46110;SDS011;31849;55.992;37.252;2022-07-01T19:21:43;14.85;;;3.80;;
46110;SDS011;31849;55.992;37.252;2022-07-01T19:26:47;11.15;;;3.65;;
46110;SDS011;31849;55.992;37.252;2022-07-01T19:31:53;20.27;;;4.60;;
46110;SDS011;31849;55.992;37.252;2022-07-01T19:36:57;11.18;;;3.53;;
46110;SDS011;31849;55.992;37.252;2022-07-01T19:42:01;12.55;;;4.07;;
46110;SDS011;31849;55.992;37.252;2022-07-01T19:47:08;11.50;;;3.83;;
46110;SDS011;31849;55.992;37.252;2022-07-01T19:52:13;9.73;;;4.25;;
46110;SDS011;31849;55.992;37.252;2022-07-01T19:57:17;9.75;;;3.90;;
46110;SDS011;31849;55.992;37.252;2022-07-01T20:02:23;12.05;;;4.05;;
46110;SDS011;31849;55.992;37.252;2022-07-01T20:07:27;12.88;;;3.60;;
46110;SDS011;31849;55.992;37.252;2022-07-01T20:12:31;10.35;;;3.75;;
46110;SDS011;31849;55.992;37.252;2022-07-01T20:17:35;12.10;;;3.90;;
46110;SDS011;31849;55.992;37.252;2022-07-01T20:22:39;7.00;;;3.67;;
46110;SDS011;31849;55.992;37.252;2022-07-01T20:27:44;8.65;;;4.05;;
46110;SDS011;31849;55.992;37.252;2022-07-01T20:32:49;7.88;;;4.05;;
46110;SDS011;31849;55.992;37.252;2022-07-01T20:37:53;8.48;;;3.85;;
46110;SDS011;31849;55.992;37.252;2022-07-01T20:42:57;9.73;;;3.75;;
46110;SDS011;31849;55.992;37.252;2022-07-01T20:48:02;18.50;;;4.97;;
46110;SDS011;31849;55.992;37.252;2022-07-01T20:53:06;8.88;;;4.18;;
46110;SDS011;31849;55.992;37.252;2022-07-01T20:58:09;14.15;;;4.97;;
46110;SDS011;31849;55.992;37.252;2022-07-01T21:03:15;14.40;;;5.25;;
46110;SDS011;31849;55.992;37.252;2022-07-01T21:08:20;10.50;;;4.72;;
46110;SDS011;31849;55.992;37.252;2022-07-01T21:13:23;17.05;;;5.68;;
46110;SDS011;31849;55.992;37.252;2022-07-01T21:18:28;16.92;;;5.57;;
46110;SDS011;31849;55.992;37.252;2022-07-01T21:23:32;14.07;;;5.50;;
46110;SDS011;31849;55.992;37.252;2022-07-01T21:28:36;15.13;;;5.15;;
46110;SDS011;31849;55.992;37.252;2022-07-01T21:33:41;12.18;;;5.05;;
46110;SDS011;31849;55.992;37.252;2022-07-01T21:38:45;11.63;;;5.18;;
46110;SDS011;31849;55.992;37.252;2022-07-01T21:43:51;14.70;;;5.05;;
46110;SDS011;31849;55.992;37.252;2022-07-01T21:48:57;10.07;;;4.80;;
46110;SDS011;31849;55.992;37.252;2022-07-01T21:54:03;13.20;;;5.32;;
46110;SDS011;31849;55.992;37.252;2022-07-01T21:59:10;13.35;;;4.80;;
46110;SDS011;31849;55.992;37.252;2022-07-01T22:04:17;13.90;;;5.20;;
46110;SDS011;31849;55.992;37.252;2022-07-01T22:09:22;10.95;;;4.85;;
46110;SDS011;31849;55.992;37.252;2022-07-01T22:14:33;11.63;;;4.88;;
46110;SDS011;31849;55.992;37.252;2022-07-01T22:19:43;9.02;;;4.78;;
46110;SDS011;31849;55.992;37.252;2022-07-01T22:24:53;17.20;;;4.63;;
46110;SDS011;31849;55.992;37.252;2022-07-01T22:29:57;10.63;;;4.95;;
46110;SDS011;31849;55.992;37.252;2022-07-01T22:35:06;13.07;;;4.90;;
46110;SDS011;31849;55.992;37.252;2022-07-01T22:40:11;10.60;;;5.32;;
46110;SDS011;31849;55.992;37.252;2022-07-01T22:45:15;12.40;;;4.65;;
46110;SDS011;31849;55.992;37.252;2022-07-01T22:50:22;10.27;;;5.20;;
46110;SDS011;31849;55.992;37.252;2022-07-01T22:55:36;10.88;;;4.40;;
46110;SDS011;31849;55.992;37.252;2022-07-01T23:00:47;12.98;;;5.22;;
46110;SDS011;31849;55.992;37.252;2022-07-01T23:05:55;11.82;;;5.72;;
46110;SDS011;31849;55.992;37.252;2022-07-01T23:11:03;12.98;;;5.50;;
46110;SDS011;31849;55.992;37.252;2022-07-01T23:16:09;10.80;;;5.72;;
46110;SDS011;31849;55.992;37.252;2022-07-01T23:21:31;13.70;;;5.68;;
46110;SDS011;31849;55.992;37.252;2022-07-01T23:26:35;12.38;;;5.57;;
46110;SDS011;31849;55.992;37.252;2022-07-01T23:31:40;11.32;;;6.18;;
46110;SDS011;31849;55.992;37.252;2022-07-01T23:36:49;13.27;;;5.63;;
46110;SDS011;31849;55.992;37.252;2022-07-01T23:41:55;13.43;;;5.57;;
46110;SDS011;31849;55.992;37.252;2022-07-01T23:46:59;9.53;;;5.43;;
46110;SDS011;31849;55.992;37.252;2022-07-01T23:52:05;9.70;;;5.40;;
46110;SDS011;31849;55.992;37.252;2022-07-01T23:57:09;17.20;;;6.35;;
